createdAt,value
2019-05-20T00:01:57.196Z,5.08
2019-05-20T00:04:28.646Z,5.55
2019-05-20T00:06:59.813Z,4.75
2019-05-20T00:09:30.990Z,4.92
2019-05-20T00:12:02.163Z,4.45
2019-05-20T00:14:35.213Z,4.97
2019-05-20T00:17:07.463Z,5.45
2019-05-20T00:19:38.929Z,5.25
2019-05-20T00:22:10.884Z,5.10
2019-05-20T00:24:42.106Z,5.10
2019-05-20T00:27:13.384Z,4.53
2019-05-20T00:29:44.670Z,5.10
2019-05-20T00:32:15.931Z,4.67
2019-05-20T00:34:47.173Z,5.12
2019-05-20T00:37:18.490Z,4.83
2019-05-20T00:39:49.730Z,4.62
2019-05-20T00:42:21.492Z,4.67
2019-05-20T00:47:22.877Z,4.40
2019-05-20T00:49:54.044Z,5.05
2019-05-20T00:52:25.587Z,4.65
2019-05-20T00:54:56.776Z,4.53
2019-05-20T00:57:27.984Z,4.50
2019-05-20T00:59:59.223Z,4.75
2019-05-20T01:02:30.446Z,4.78
2019-05-20T01:05:02.061Z,4.67
2019-05-20T01:07:33.720Z,5.62
2019-05-20T01:10:05.411Z,5.67
2019-05-20T01:12:37.162Z,6.10
2019-05-20T01:17:38.651Z,5.28
2019-05-20T01:20:09.837Z,5.70
2019-05-20T01:22:41.052Z,5.28
2019-05-20T01:25:13.181Z,6.08
2019-05-20T01:27:44.710Z,5.37
2019-05-20T01:30:16.630Z,5.33
2019-05-20T01:32:49.171Z,5.50
2019-05-20T01:35:20.420Z,5.58
2019-05-20T01:37:52.046Z,5.47
2019-05-20T01:40:23.236Z,5.20
2019-05-20T01:42:54.787Z,5.80
2019-05-20T01:45:26.051Z,5.45
2019-05-20T01:47:57.247Z,5.42
2019-05-20T01:50:28.521Z,5.45
2019-05-20T01:52:59.720Z,5.45
2019-05-20T01:55:31.198Z,5.00
2019-05-20T01:58:02.457Z,5.25
2019-05-20T02:00:34.063Z,5.03
2019-05-20T02:03:05.547Z,5.00
2019-05-20T02:05:37.103Z,5.45
2019-05-20T02:08:08.362Z,5.53
2019-05-20T02:10:39.624Z,5.47
2019-05-20T02:13:11.266Z,5.15
2019-05-20T02:15:48.319Z,5.95
2019-05-20T02:18:19.723Z,5.42
2019-05-20T02:20:50.943Z,5.85
2019-05-20T02:23:23.115Z,5.67
2019-05-20T02:25:54.911Z,5.70
2019-05-20T02:30:57.089Z,5.65
2019-05-20T02:33:28.761Z,6.37
2019-05-20T02:35:59.922Z,5.85
2019-05-20T02:38:31.084Z,5.80
2019-05-20T02:41:02.267Z,6.85
2019-05-20T02:43:34.140Z,6.80
2019-05-20T02:48:36.770Z,6.67
2019-05-20T02:51:08.013Z,6.62
2019-05-20T02:53:39.245Z,6.80
2019-05-20T02:56:10.479Z,7.72
2019-05-20T02:58:41.627Z,8.03
2019-05-20T03:01:12.820Z,7.05
2019-05-20T03:03:44.326Z,8.30
2019-05-20T03:06:15.563Z,7.80
2019-05-20T03:08:47.143Z,7.33
2019-05-20T03:11:18.777Z,7.37
2019-05-20T03:13:50.667Z,8.20
2019-05-20T03:16:23.204Z,9.40
2019-05-20T03:18:54.372Z,9.23
2019-05-20T03:21:25.688Z,8.70
2019-05-20T03:23:57.286Z,9.08
2019-05-20T03:26:28.469Z,9.48
2019-05-20T03:28:59.646Z,9.88
2019-05-20T03:31:30.851Z,8.43
2019-05-20T03:34:02.519Z,11.70
2019-05-20T03:36:33.804Z,11.75
2019-05-20T03:39:05.983Z,10.00
2019-05-20T03:41:37.209Z,10.45
2019-05-20T03:44:08.470Z,12.15
2019-05-20T03:46:39.674Z,11.28
2019-05-20T03:49:11.126Z,11.10
2019-05-20T03:51:42.918Z,9.65
2019-05-20T03:54:14.688Z,11.10
2019-05-20T03:56:45.945Z,11.90
2019-05-20T03:59:17.186Z,12.18
2019-05-20T04:01:48.370Z,12.88
2019-05-20T04:04:19.658Z,12.70
2019-05-20T04:06:51.722Z,13.18
2019-05-20T04:09:23.939Z,12.23
2019-05-20T04:11:55.465Z,11.93
2019-05-20T04:14:27.095Z,13.60
2019-05-20T04:16:58.582Z,12.37
2019-05-20T04:19:29.794Z,12.88
2019-05-20T04:22:01.550Z,12.50
2019-05-20T04:24:33.051Z,12.07
2019-05-20T04:27:08.424Z,12.68
2019-05-20T04:29:40.071Z,13.48
2019-05-20T04:32:11.547Z,11.75
2019-05-20T04:34:42.784Z,12.05
2019-05-20T04:37:15.083Z,12.65
2019-05-20T04:39:46.342Z,13.72
2019-05-20T04:42:17.562Z,13.15
2019-05-20T04:44:48.753Z,12.33
2019-05-20T04:47:20.027Z,12.35
2019-05-20T04:49:51.579Z,13.35
2019-05-20T04:52:23.237Z,13.25
2019-05-20T04:54:54.483Z,11.65
2019-05-20T04:57:25.954Z,12.37
2019-05-20T04:59:57.475Z,11.80
2019-05-20T05:02:28.667Z,12.35
2019-05-20T05:04:59.845Z,12.65
2019-05-20T05:07:31.101Z,13.00
2019-05-20T05:10:02.390Z,11.35
2019-05-20T05:12:34.474Z,13.95
2019-05-20T05:15:08.022Z,13.40
2019-05-20T05:17:39.548Z,11.93
2019-05-20T05:20:17.899Z,11.85
2019-05-20T05:22:44.101Z,11.10
2019-05-20T05:25:15.554Z,11.40
2019-05-20T05:27:46.792Z,11.30
2019-05-20T05:30:18.281Z,10.68
2019-05-20T05:32:50.300Z,9.40
2019-05-20T05:35:23.079Z,9.20
2019-05-20T05:37:54.895Z,8.93
2019-05-20T05:40:30.049Z,9.75
2019-05-20T05:43:01.651Z,8.63
2019-05-20T05:45:34.059Z,10.20
2019-05-20T05:48:05.466Z,11.28
2019-05-20T05:50:36.785Z,10.95
2019-05-20T05:53:08.494Z,12.53
2019-05-20T05:55:39.735Z,15.00
2019-05-20T05:58:11.245Z,14.95
2019-05-20T06:00:43.044Z,14.40
2019-05-20T06:03:14.298Z,15.00
2019-05-20T06:05:45.528Z,18.02
2019-05-20T06:08:18.074Z,16.15
2019-05-20T06:10:50.331Z,15.55
2019-05-20T06:15:54.517Z,15.23
2019-05-20T06:18:24.434Z,15.58
2019-05-20T06:20:55.618Z,15.38
2019-05-20T06:23:27.260Z,16.42
2019-05-20T06:25:59.161Z,15.70
2019-05-20T06:31:00.390Z,15.68
2019-05-20T06:33:31.569Z,16.17
2019-05-20T06:36:03.221Z,16.93
2019-05-20T06:38:59.132Z,18.40
2019-05-20T06:41:30.601Z,18.95
2019-05-20T06:44:02.169Z,19.57
2019-05-20T06:46:33.668Z,19.48
2019-05-20T06:49:06.736Z,20.75
2019-05-20T06:51:38.199Z,22.15
2019-05-20T06:54:09.739Z,22.55
2019-05-20T06:56:41.213Z,21.25
2019-05-20T06:59:13.731Z,21.80
2019-05-20T07:01:45.002Z,21.90
2019-05-20T07:04:16.583Z,24.07
2019-05-20T07:06:47.894Z,23.57
2019-05-20T07:09:19.507Z,23.10
2019-05-20T07:11:53.040Z,23.30
2019-05-20T07:14:24.274Z,24.67
2019-05-20T07:16:55.643Z,22.80
2019-05-20T07:19:27.812Z,23.80
2019-05-20T07:21:59.019Z,22.75
2019-05-20T07:24:30.191Z,23.98
2019-05-20T07:27:01.444Z,23.50
2019-05-20T07:29:33.057Z,25.05
2019-05-20T07:32:04.673Z,26.48
2019-05-20T07:34:35.974Z,26.23
2019-05-20T07:37:10.615Z,24.10
2019-05-20T07:39:41.815Z,24.98
2019-05-20T07:42:13.063Z,22.90
2019-05-20T07:44:44.381Z,24.37
2019-05-20T07:47:16.792Z,25.70
2019-05-20T07:49:49.070Z,24.30
2019-05-20T07:52:23.065Z,24.10
2019-05-20T07:54:56.395Z,24.15
2019-05-20T07:57:31.030Z,23.87
2019-05-20T08:00:02.915Z,25.90
2019-05-20T08:02:39.574Z,25.10
2019-05-20T08:05:11.562Z,24.63
2019-05-20T08:07:51.993Z,23.65
2019-05-20T08:10:16.307Z,23.22
2019-05-20T08:15:18.403Z,22.62
2019-05-20T08:20:20.607Z,22.35
2019-05-20T08:22:52.115Z,24.43
2019-05-20T08:25:23.601Z,21.57
2019-05-20T08:27:54.838Z,21.77
2019-05-20T08:30:34.689Z,23.05
2019-05-20T08:33:06.880Z,21.62
2019-05-20T08:35:38.100Z,21.50
2019-05-20T08:38:09.685Z,20.57
2019-05-20T08:40:42.301Z,21.75
2019-05-20T08:43:14.061Z,20.15
2019-05-20T08:45:45.996Z,20.72
2019-05-20T08:48:17.986Z,20.52
2019-05-20T08:50:49.170Z,20.62
2019-05-20T08:53:20.458Z,20.40
2019-05-20T08:55:52.743Z,21.20
2019-05-20T08:58:24.065Z,20.02
2019-05-20T09:00:55.787Z,19.70
2019-05-20T09:03:30.281Z,18.15
2019-05-20T09:06:02.974Z,19.05
2019-05-20T09:08:34.672Z,20.65
2019-05-20T09:13:37.046Z,19.70
2019-05-20T09:18:39.449Z,18.65
2019-05-20T09:21:11.300Z,18.75
2019-05-20T09:23:42.824Z,19.37
2019-05-20T09:26:14.584Z,20.17
2019-05-20T09:31:16.711Z,20.20
2019-05-20T09:33:48.136Z,19.42
2019-05-20T09:36:19.363Z,19.17
2019-05-20T09:38:51.045Z,20.40
2019-05-20T09:41:22.298Z,20.23
2019-05-20T09:43:53.902Z,21.05
2019-05-20T09:46:25.558Z,20.15
2019-05-20T09:48:56.851Z,20.68
2019-05-20T09:51:28.359Z,20.65
2019-05-20T09:53:59.957Z,20.10
2019-05-20T09:56:31.280Z,20.90
2019-05-20T09:59:02.703Z,19.55
2019-05-20T10:01:34.387Z,20.23
2019-05-20T10:04:06.401Z,20.27
2019-05-20T10:06:38.636Z,20.32
2019-05-20T10:09:10.838Z,20.23
2019-05-20T10:11:42.077Z,19.90
2019-05-20T10:14:14.297Z,20.10
2019-05-20T10:16:45.804Z,20.25
2019-05-20T10:19:17.425Z,20.62
2019-05-20T10:21:48.647Z,21.45
2019-05-20T10:24:20.254Z,19.25
2019-05-20T10:26:51.450Z,20.80
2019-05-20T10:29:23.065Z,20.55
2019-05-20T10:31:54.288Z,19.98
2019-05-20T10:34:25.945Z,20.08
2019-05-20T10:36:58.298Z,20.17
2019-05-20T10:39:29.561Z,19.35
2019-05-20T10:42:00.764Z,20.40
2019-05-20T10:44:32.313Z,20.20
2019-05-20T10:47:05.323Z,20.05
2019-05-20T10:49:36.575Z,19.73
2019-05-20T10:52:10.174Z,20.48
2019-05-20T10:54:41.436Z,20.20
2019-05-20T10:57:13.103Z,19.00
2019-05-20T10:59:44.735Z,20.08
2019-05-20T11:02:18.086Z,19.23
2019-05-20T11:07:19.747Z,19.37
2019-05-20T11:09:51.244Z,20.45
2019-05-20T11:12:22.497Z,18.85
2019-05-20T11:14:53.821Z,18.20
2019-05-20T11:17:25.062Z,19.65
2019-05-20T11:19:56.251Z,18.40
2019-05-20T11:22:27.584Z,18.65
2019-05-20T11:24:58.806Z,19.10
2019-05-20T11:27:30.202Z,18.85
2019-05-20T11:30:01.403Z,19.87
2019-05-20T11:32:32.943Z,20.00
2019-05-20T11:37:43.753Z,20.30
2019-05-20T11:40:15.276Z,22.30
2019-05-20T11:42:47.192Z,23.15
2019-05-20T11:45:20.301Z,22.50
2019-05-20T11:47:51.944Z,24.05
2019-05-20T11:50:23.586Z,22.27
2019-05-20T11:52:55.693Z,24.18
2019-05-20T11:55:27.616Z,23.73
2019-05-20T11:58:14.638Z,24.47
2019-05-20T12:00:31.952Z,24.70
2019-05-20T12:03:05.060Z,26.52
2019-05-20T12:05:36.885Z,26.07
2019-05-20T12:08:08.904Z,26.62
2019-05-20T12:10:40.484Z,26.23
2019-05-20T12:13:12.019Z,23.42
2019-05-20T12:15:43.286Z,26.23
2019-05-20T12:18:14.811Z,26.25
2019-05-20T12:20:46.458Z,24.72
2019-05-20T12:23:17.651Z,24.18
2019-05-20T12:25:49.924Z,22.85
2019-05-20T12:28:21.275Z,21.68
2019-05-20T12:30:52.818Z,22.27
2019-05-20T12:33:24.641Z,20.25
2019-05-20T12:35:56.186Z,17.92
2019-05-20T12:38:27.467Z,16.70
2019-05-20T12:40:58.749Z,16.60
2019-05-20T12:43:30.616Z,15.83
2019-05-20T12:48:31.949Z,13.60
2019-05-20T12:51:03.818Z,13.90
2019-05-20T12:53:35.150Z,13.05
2019-05-20T12:56:06.525Z,12.85
2019-05-20T12:58:37.896Z,10.82
2019-05-20T13:01:09.479Z,9.78
2019-05-20T13:03:41.095Z,9.23
2019-05-20T13:06:12.782Z,9.25
2019-05-20T13:08:44.435Z,9.25
2019-05-20T13:11:15.618Z,8.60
2019-05-20T13:13:46.923Z,7.65
2019-05-20T13:16:18.421Z,16.62
2019-05-20T13:18:56.063Z,7.83
2019-05-20T13:21:23.524Z,7.70
2019-05-20T13:23:55.171Z,6.53
2019-05-20T13:28:59.670Z,5.37
2019-05-20T13:31:30.693Z,5.62
2019-05-20T13:36:32.358Z,4.15
2019-05-20T13:39:05.697Z,3.70
2019-05-20T13:41:37.399Z,3.33
2019-05-20T13:46:39.514Z,3.00
2019-05-20T13:49:10.907Z,2.85
2019-05-20T13:51:42.467Z,3.27
2019-05-20T13:54:13.743Z,2.80
2019-05-20T13:56:45.542Z,2.70
2019-05-20T13:59:17.625Z,7.03
2019-05-20T14:01:48.886Z,5.47
2019-05-20T14:04:20.163Z,6.25
2019-05-20T14:06:52.033Z,5.12
2019-05-20T14:09:23.709Z,5.12
2019-05-20T14:11:55.308Z,5.90
2019-05-20T14:14:26.561Z,6.80
2019-05-20T14:16:57.800Z,7.95
2019-05-20T14:19:33.997Z,9.25
2019-05-20T14:22:07.005Z,9.13
2019-05-20T14:24:38.498Z,10.28
2019-05-20T14:27:10.854Z,9.50
2019-05-20T14:29:42.144Z,10.30
2019-05-20T14:32:13.852Z,11.33
2019-05-20T14:34:46.280Z,9.75
2019-05-20T14:37:18.737Z,27.17
2019-05-20T14:39:50.008Z,13.40
2019-05-20T14:42:25.288Z,9.05
2019-05-20T14:44:54.797Z,8.73
2019-05-20T14:47:26.398Z,41.25
2019-05-20T14:52:27.741Z,15.50
2019-05-20T14:54:59.319Z,12.20
2019-05-20T14:57:30.819Z,11.80
2019-05-20T15:00:02.427Z,9.35
2019-05-20T15:05:03.966Z,8.25
2019-05-20T15:07:36.650Z,8.80
2019-05-20T15:10:10.031Z,8.38
2019-05-20T15:12:41.713Z,8.95
2019-05-20T15:15:13.965Z,9.08
2019-05-20T15:17:45.774Z,8.28
2019-05-20T15:20:17.296Z,8.78
2019-05-20T15:22:49.387Z,8.68
2019-05-20T15:25:20.592Z,9.15
2019-05-20T15:27:52.541Z,8.10
2019-05-20T15:30:24.034Z,8.95
2019-05-20T15:32:55.677Z,9.05
2019-05-20T15:35:27.506Z,8.23
2019-05-20T15:38:00.022Z,8.35
2019-05-20T15:40:31.847Z,8.35
2019-05-20T15:45:33.603Z,8.53
2019-05-20T15:48:05.317Z,8.80
2019-05-20T15:53:11.436Z,8.40
2019-05-20T15:55:39.957Z,8.28
2019-05-20T15:58:11.936Z,9.43
2019-05-20T16:00:43.290Z,8.58
2019-05-20T16:03:14.677Z,7.47
2019-05-20T16:05:45.975Z,7.50
2019-05-20T16:08:18.410Z,7.22
2019-05-20T16:10:49.607Z,7.78
2019-05-20T16:13:21.629Z,7.17
2019-05-20T16:15:53.528Z,6.20
2019-05-20T16:20:56.349Z,5.90
2019-05-20T16:23:27.579Z,6.33
2019-05-20T16:25:59.598Z,6.40
2019-05-20T16:28:31.125Z,6.47
2019-05-20T16:31:02.459Z,6.30
2019-05-20T16:33:33.861Z,6.67
2019-05-20T16:36:05.778Z,5.90
2019-05-20T16:38:37.771Z,6.70
2019-05-20T16:41:09.840Z,6.03
2019-05-20T16:43:41.142Z,7.28
2019-05-20T16:46:12.535Z,7.62
2019-05-20T16:48:44.101Z,8.55
2019-05-20T16:51:15.436Z,7.72
2019-05-20T16:53:48.033Z,8.33
2019-05-20T16:56:19.631Z,8.65
2019-05-20T16:58:50.958Z,7.45
2019-05-20T17:01:22.499Z,9.40
2019-05-20T17:03:54.158Z,8.88
2019-05-20T17:06:27.621Z,8.70
2019-05-20T17:09:05.996Z,9.38
2019-05-20T17:11:37.369Z,8.55
2019-05-20T17:14:10.749Z,8.40
2019-05-20T17:16:42.145Z,10.15
2019-05-20T17:19:14.153Z,9.80
2019-05-20T17:21:45.439Z,10.10
2019-05-20T17:24:16.902Z,8.83
2019-05-20T17:26:48.854Z,9.73
2019-05-20T17:29:20.181Z,9.98
2019-05-20T17:31:51.427Z,8.33
2019-05-20T17:34:22.789Z,10.60
2019-05-20T17:36:54.409Z,9.93
2019-05-20T17:39:26.082Z,10.65
2019-05-20T17:41:57.697Z,11.20
2019-05-20T17:44:28.984Z,10.75
2019-05-20T17:47:00.191Z,10.88
2019-05-20T17:49:31.784Z,11.10
2019-05-20T17:52:03.134Z,12.90
2019-05-20T17:54:34.423Z,11.68
2019-05-20T17:57:06.223Z,11.40
2019-05-20T17:59:38.250Z,12.55
2019-05-20T18:02:12.100Z,13.03
2019-05-20T18:04:44.251Z,13.00
2019-05-20T18:07:16.412Z,13.30
2019-05-20T18:09:50.899Z,13.45
2019-05-20T18:12:23.988Z,13.28
2019-05-20T18:14:57.099Z,13.53
2019-05-20T18:17:28.277Z,13.43
2019-05-20T18:19:59.943Z,14.30
2019-05-20T18:25:02.139Z,13.75
2019-05-20T18:27:35.029Z,14.40
2019-05-20T18:30:10.741Z,15.68
2019-05-20T18:32:42.430Z,15.83
2019-05-20T18:35:13.706Z,16.00
2019-05-20T18:37:46.250Z,14.90
2019-05-20T18:40:20.169Z,15.53
2019-05-20T18:42:52.405Z,17.30
2019-05-20T18:47:53.683Z,15.90
2019-05-20T18:50:25.899Z,16.52
2019-05-20T18:52:57.425Z,15.38
2019-05-20T18:55:28.955Z,15.90
2019-05-20T19:00:33.275Z,15.45
2019-05-20T19:03:05.172Z,16.52
2019-05-20T19:05:37.736Z,16.10
2019-05-20T19:08:08.940Z,16.50
2019-05-20T19:10:41.602Z,16.50
2019-05-20T19:13:14.663Z,17.12
2019-05-20T19:15:46.002Z,16.30
2019-05-20T19:18:17.705Z,15.45
2019-05-20T19:20:49.780Z,16.67
2019-05-20T19:23:21.831Z,16.50
2019-05-20T19:25:55.146Z,15.30
2019-05-20T19:28:26.710Z,15.65
2019-05-20T19:30:59.184Z,16.85
2019-05-20T19:33:30.489Z,16.97
2019-05-20T19:36:02.822Z,17.10
2019-05-20T19:38:34.984Z,16.75
2019-05-20T19:41:07.975Z,16.87
2019-05-20T19:43:41.354Z,16.73
2019-05-20T19:46:13.223Z,16.35
2019-05-20T19:48:45.305Z,15.88
2019-05-20T19:51:16.849Z,14.20
2019-05-20T19:53:48.961Z,15.10
2019-05-20T19:56:20.663Z,13.62
2019-05-20T19:58:52.245Z,14.07
2019-05-20T20:01:24.792Z,14.93
2019-05-20T20:03:57.291Z,13.10
2019-05-20T20:06:29.454Z,13.08
2019-05-20T20:09:00.717Z,12.33
2019-05-20T20:11:33.507Z,12.50
2019-05-20T20:14:06.394Z,12.70
2019-05-20T20:16:38.174Z,11.20
2019-05-20T20:19:09.461Z,11.40
2019-05-20T20:21:41.010Z,10.78
2019-05-20T20:24:14.457Z,11.18
2019-05-20T20:26:46.074Z,11.83
2019-05-20T20:29:17.649Z,9.98
2019-05-20T20:31:49.303Z,10.90
2019-05-20T20:34:22.177Z,11.20
2019-05-20T20:36:53.997Z,9.65
2019-05-20T20:41:56.714Z,10.53
2019-05-20T20:44:29.160Z,10.28
2019-05-20T20:47:01.313Z,10.80
2019-05-20T20:52:03.568Z,10.15
2019-05-20T20:54:35.552Z,9.90
2019-05-20T20:57:07.515Z,11.45
2019-05-20T20:59:38.673Z,10.18
2019-05-20T21:02:09.897Z,11.05
2019-05-20T21:04:41.145Z,9.95
2019-05-20T21:07:12.749Z,9.00
2019-05-20T21:09:44.573Z,7.87
2019-05-20T21:14:47.316Z,7.33
2019-05-20T21:17:20.310Z,6.87
2019-05-20T21:19:53.253Z,6.53
2019-05-20T21:22:25.226Z,7.08
2019-05-20T21:24:56.740Z,7.40
2019-05-20T21:27:30.309Z,8.50
2019-05-20T21:30:01.606Z,8.45
2019-05-20T21:32:33.557Z,9.73
2019-05-20T21:35:05.143Z,10.32
2019-05-20T21:37:36.951Z,10.20
2019-05-20T21:40:09.048Z,10.43
2019-05-20T21:42:40.615Z,10.60
2019-05-20T21:45:12.233Z,11.38
2019-05-20T21:47:44.966Z,11.08
2019-05-20T21:50:16.784Z,10.55
2019-05-20T21:55:18.479Z,10.88
2019-05-20T21:57:51.052Z,10.85
2019-05-20T22:00:28.108Z,9.85
2019-05-20T22:03:01.555Z,9.23
2019-05-20T22:05:32.943Z,9.10
2019-05-20T22:08:04.423Z,9.55
2019-05-20T22:10:36.657Z,8.25
2019-05-20T22:13:08.453Z,9.30
2019-05-20T22:15:39.963Z,8.10
2019-05-20T22:18:11.292Z,7.62
2019-05-20T22:20:42.842Z,8.28
2019-05-20T22:26:12.494Z,7.33
2019-05-20T22:28:43.933Z,6.37
2019-05-20T22:31:15.397Z,6.67
2019-05-20T22:33:47.942Z,6.60
2019-05-20T22:36:20.351Z,6.20
2019-05-20T22:38:51.558Z,7.70
2019-05-20T22:41:23.060Z,6.53
2019-05-20T22:43:54.719Z,7.58
2019-05-20T22:48:56.128Z,7.72
2019-05-20T22:51:27.673Z,7.72
2019-05-20T22:53:59.026Z,7.90
2019-05-20T22:56:30.424Z,8.63
2019-05-20T22:59:01.592Z,9.40
2019-05-20T23:01:32.850Z,9.38
2019-05-20T23:04:04.346Z,10.03
2019-05-20T23:06:35.671Z,9.50
2019-05-20T23:09:07.429Z,10.50
2019-05-20T23:11:39.103Z,9.75
2019-05-20T23:16:40.776Z,9.78
2019-05-20T23:19:11.961Z,10.13
2019-05-20T23:21:43.464Z,10.48
2019-05-20T23:24:14.809Z,10.48
2019-05-20T23:26:46.050Z,9.58
2019-05-20T23:29:18.031Z,10.05
2019-05-20T23:31:49.275Z,10.25
2019-05-20T23:34:20.714Z,9.60
2019-05-20T23:36:53.059Z,10.65
2019-05-20T23:39:24.846Z,10.30
2019-05-20T23:44:27.220Z,9.45
2019-05-20T23:46:58.602Z,10.08
2019-05-20T23:49:30.359Z,8.85
2019-05-20T23:52:01.811Z,9.03
2019-05-20T23:54:33.711Z,9.85
2019-05-20T23:57:06.415Z,10.08
2019-05-20T23:59:37.818Z,7.53
